Terminal Aerodrome Forecast
Issued by NWS

Home | Current Version | Previous Version | Text Only | Print | Product List | Glossary On
Versions: 1 2 3 4 5 6 7 8 9 10 11 12 13 14 15 16 17 18 19 20 21 22 23 24 25 26
000
FTUS43 KGRR 051130
TAFJXN
TAF
KJXN 051130Z 0512/0612 23003KT P6SM VCTS BKN050CB
      TEMPO 0512/0513 4SM TSRA BR OVC025CB
     FM060000 24002KT 6SM BR SKC
     FM060600 19003KT 4SM BR SCT250=

USA.gov is the U.S. government's official web portal to all federal, state and local government web resources and services.